Time;durP1;ratioP1;P1;durP2;ratioP2;P2;SDS_P1;SDS_P2;PMS_P1;PMS_P2;Temp;Humidity;BMP_temperature;BMP_pressure;BME280_temperature;BME280_humidity;BME280_pressure;Samples;Min_cycle;Max_cycle;Signal;HPM_P1;HPM_P2
2023/10/09 00:03:04;;;;;;;3.20;3.00;;;22.80;48.20;;;;;;4990257;28;20477;-58
2023/10/09 00:05:45;;;;;;;3.33;3.03;;;22.80;47.50;;;;;;5001995;28;20973;-61
2023/10/09 00:08:30;;;;;;;3.33;3.13;;;22.80;48.30;;;;;;4996384;28;20828;-57
2023/10/09 00:11:16;;;;;;;3.40;3.20;;;22.80;47.60;;;;;;4985825;28;20564;-58
2023/10/09 00:13:49;;;;;;;3.30;3.00;;;22.80;47.60;;;;;;5003012;28;20943;-60
2023/10/09 00:16:23;;;;;;;3.10;2.90;;;22.80;47.60;;;;;;4990702;28;21700;-58
2023/10/09 00:18:49;;;;;;;3.23;3.03;;;22.80;47.60;;;;;;4998546;28;20508;-61
2023/10/09 00:21:20;;;;;;;3.63;3.33;;;22.70;47.50;;;;;;4988546;28;20449;-57
2023/10/09 00:23:59;;;;;;;3.23;3.03;;;22.80;47.60;;;;;;4999094;28;20995;-58
2023/10/09 00:26:25;;;;;;;2.73;2.53;;;22.70;47.60;;;;;;4988374;28;20468;-59
2023/10/09 00:28:51;;;;;;;2.80;2.60;;;22.80;47.60;;;;;;4988366;28;20464;-60
2023/10/09 00:31:55;;;;;;;3.03;2.83;;;22.80;47.70;;;;;;4993113;28;20469;-60
2023/10/09 00:34:18;;;;;;;2.87;2.67;;;22.70;47.50;;;;;;4990511;28;20262;-61
2023/10/09 00:36:50;;;;;;;3.03;2.83;;;22.70;47.50;;;;;;4992746;28;20445;-61
2023/10/09 00:39:23;;;;;;;2.73;2.63;;;22.70;47.50;;;;;;5010621;28;20556;-58
2023/10/09 00:41:48;;;;;;;3.37;3.17;;;22.70;47.60;;;;;;5010798;28;20471;-60
2023/10/09 00:44:14;;;;;;;2.90;2.70;;;22.80;47.60;;;;;;4991178;28;20792;-57
2023/10/09 00:46:43;;;;;;;2.40;2.30;;;22.70;47.60;;;;;;4995347;28;20224;-58
2023/10/09 00:49:10;;;;;;;3.30;3.10;;;22.70;47.60;;;;;;5009292;28;20227;-61
2023/10/09 00:51:42;;;;;;;2.87;2.67;;;22.70;47.50;;;;;;4992052;28;20473;-58
2023/10/09 00:54:14;;;;;;;3.23;2.70;;;22.70;47.60;;;;;;4995236;28;20455;-59
2023/10/09 00:56:43;;;;;;;3.07;2.87;;;22.70;47.50;;;;;;4989895;28;20969;-58
2023/10/09 00:59:14;;;;;;;3.37;3.17;;;22.70;47.50;;;;;;4989279;28;20449;-62
2023/10/09 01:01:41;;;;;;;3.07;2.87;;;22.70;47.50;;;;;;4991942;28;20456;-62
2023/10/09 01:04:14;;;;;;;2.77;2.57;;;22.70;47.60;;;;;;4989355;28;20476;-62
2023/10/09 01:06:47;;;;;;;2.63;2.53;;;22.70;47.60;;;;;;4986999;28;20481;-58
2023/10/09 01:09:14;;;;;;;2.93;2.73;;;22.70;47.60;;;;;;5010224;28;20479;-57
2023/10/09 01:11:49;;;;;;;3.17;2.97;;;22.70;47.60;;;;;;5005441;28;21194;-62
2023/10/09 01:14:15;;;;;;;2.43;2.33;;;22.70;47.60;;;;;;5007989;28;20510;-59
2023/10/09 01:16:42;;;;;;;3.03;2.83;;;22.70;47.60;;;;;;5002880;28;20444;-63
2023/10/09 01:19:43;;;;;;;2.77;2.57;;;22.70;47.60;;;;;;5010964;28;20457;-57
2023/10/09 01:22:04;;;;;;;3.47;3.27;;;22.70;47.60;;;;;;5000342;28;20476;-58
2023/10/09 01:24:31;;;;;;;2.97;2.80;;;22.70;47.60;;;;;;4997730;28;20956;-63
2023/10/09 01:26:59;;;;;;;2.97;2.77;;;22.70;47.70;;;;;;5000530;28;20470;-59
2023/10/09 01:29:27;;;;;;;3.00;2.80;;;22.70;47.70;;;;;;4992354;28;20497;-61
2023/10/09 01:32:00;;;;;;;2.90;2.70;;;22.70;47.70;;;;;;4987970;28;20825;-57
2023/10/09 01:34:45;;;;;;;2.87;2.70;;;22.70;47.70;;;;;;4990069;28;20473;-63
2023/10/09 01:37:18;;;;;;;2.90;2.80;;;22.70;47.70;;;;;;4989552;28;20461;-57
2023/10/09 01:39:48;;;;;;;2.83;2.63;;;22.70;47.70;;;;;;4995705;28;21019;-62
2023/10/09 01:42:23;;;;;;;4.13;3.83;;;22.70;47.70;;;;;;4988545;28;20465;-59
2023/10/09 01:44:50;;;;;;;2.70;2.50;;;22.70;47.70;;;;;;4999690;28;20464;-61
2023/10/09 01:47:18;;;;;;;3.23;2.90;;;22.70;47.70;;;;;;5010216;28;20464;-58
2023/10/09 01:49:48;;;;;;;4.20;3.90;;;22.70;47.70;;;;;;5001372;28;20444;-62
2023/10/09 01:52:17;;;;;;;3.20;2.90;;;22.70;47.70;;;;;;4996106;28;20458;-58
2023/10/09 01:54:51;;;;;;;2.70;2.53;;;22.70;47.70;;;;;;5004664;28;20511;-58
2023/10/09 01:57:24;;;;;;;3.00;2.80;;;22.70;47.80;;;;;;5009754;28;20498;-60
2023/10/09 01:59:55;;;;;;;2.70;2.50;;;22.70;47.90;;;;;;4996536;28;20482;-59
2023/10/09 02:02:27;;;;;;;2.70;2.50;;;22.70;47.80;;;;;;4997083;28;20497;-58
2023/10/09 02:05:09;;;;;;;2.77;2.57;;;22.70;47.80;;;;;;5000721;28;21007;-60
2023/10/09 02:07:44;;;;;;;2.50;2.40;;;22.70;47.80;;;;;;4992591;28;20473;-59
2023/10/09 02:10:31;;;;;;;3.70;3.50;;;22.70;47.70;;;;;;4986898;28;20459;-57
2023/10/09 02:13:00;;;;;;;2.90;2.70;;;22.70;47.70;;;;;;4987769;28;20468;-58
2023/10/09 02:18:18;;;;;;;3.37;3.10;;;22.70;47.80;;;;;;4991979;28;20454;-59
2023/10/09 02:20:55;;;;;;;3.17;2.93;;;22.70;47.80;;;;;;5020935;28;20728;-59
2023/10/09 02:23:24;;;;;;;2.60;2.50;;;22.70;47.90;;;;;;5002342;28;20460;-58
2023/10/09 02:25:53;;;;;;;2.67;2.47;;;22.70;47.90;;;;;;4987872;28;20461;-58
2023/10/09 02:28:18;;;;;;;2.90;2.70;;;22.70;47.80;;;;;;4995698;28;20954;-59
2023/10/09 02:30:47;;;;;;;2.73;2.53;;;22.70;47.80;;;;;;5002667;28;20473;-58
2023/10/09 02:33:27;;;;;;;2.87;2.67;;;22.70;47.80;;;;;;4985595;28;20311;-58
2023/10/09 02:35:54;;;;;;;2.93;2.73;;;22.70;47.80;;;;;;4990172;28;20479;-58
2023/10/09 02:38:23;;;;;;;2.77;2.57;;;22.70;47.80;;;;;;4989472;28;20562;-59
2023/10/09 02:43:26;;;;;;;3.10;2.90;;;22.70;48.50;;;;;;4994186;28;20567;-58
2023/10/09 02:45:52;;;;;;;2.77;2.57;;;22.70;47.90;;;;;;4992615;28;20556;-58
2023/10/09 02:48:25;;;;;;;3.27;3.07;;;22.70;47.90;;;;;;4995299;28;23304;-58
2023/10/09 02:50:51;;;;;;;2.27;2.10;;;22.70;48.20;;;;;;5002496;28;20240;-58
2023/10/09 02:53:28;;;;;;;2.80;2.60;;;22.70;47.80;;;;;;4996824;28;20541;-57
2023/10/09 02:56:12;;;;;;;2.40;2.30;;;22.70;47.80;;;;;;4996820;28;20289;-59
2023/10/09 02:58:39;;;;;;;3.10;2.90;;;22.70;47.80;;;;;;4998726;28;20474;-58
2023/10/09 03:01:09;;;;;;;2.50;2.30;;;22.70;47.90;;;;;;5006683;28;20476;-57
2023/10/09 03:03:35;;;;;;;2.80;2.60;;;22.70;47.90;;;;;;5002468;28;20542;-60
2023/10/09 03:06:03;;;;;;;2.47;2.27;;;22.70;47.90;;;;;;4989892;28;20461;-57
2023/10/09 03:08:29;;;;;;;2.70;2.50;;;22.70;47.90;;;;;;4989821;28;21234;-61
2023/10/09 03:10:56;;;;;;;2.20;2.10;;;22.70;47.90;;;;;;4986635;28;20466;-58
2023/10/09 03:13:22;;;;;;;2.67;2.50;;;22.70;47.90;;;;;;4984688;28;21094;-59
2023/10/09 03:15:48;;;;;;;3.10;2.90;;;22.70;47.90;;;;;;4988488;28;20521;-58
2023/10/09 03:18:14;;;;;;;3.10;2.90;;;22.70;48.00;;;;;;5007490;28;20370;-61
2023/10/09 03:20:40;;;;;;;2.80;2.60;;;22.70;48.00;;;;;;4996696;28;20533;-58
2023/10/09 03:23:09;;;;;;;2.50;2.30;;;22.70;47.90;;;;;;4991288;28;20227;-62
2023/10/09 03:25:37;;;;;;;2.67;2.47;;;22.70;47.90;;;;;;4988902;28;20472;-57
2023/10/09 03:28:03;;;;;;;2.47;2.27;;;22.70;48.00;;;;;;5004301;28;20530;-58
2023/10/09 03:30:32;;;;;;;2.37;2.27;;;22.70;47.90;;;;;;4987636;28;20453;-57
2023/10/09 03:33:00;;;;;;;2.60;2.50;;;22.70;47.90;;;;;;4984358;28;20292;-58
2023/10/09 03:35:33;;;;;;;3.00;2.80;;;22.70;47.90;;;;;;4992201;28;20473;-63
2023/10/09 03:38:34;;;;;;;2.47;2.37;;;22.70;48.00;;;;;;4999979;28;23016;-60
2023/10/09 03:40:50;;;;;;;2.73;2.60;;;22.70;48.00;;;;;;5006245;28;20490;-60
2023/10/09 03:43:16;;;;;;;2.43;2.27;;;22.70;48.00;;;;;;4998003;28;21058;-57
2023/10/09 03:45:54;;;;;;;2.63;2.43;;;22.60;47.90;;;;;;5006313;28;20224;-61
2023/10/09 03:48:31;;;;;;;2.67;2.50;;;22.70;48.00;;;;;;5001879;28;20684;-59
2023/10/09 03:51:12;;;;;;;2.63;2.43;;;22.60;48.60;;;;;;5003435;28;20973;-57
2023/10/09 03:53:40;;;;;;;2.97;2.77;;;22.70;48.00;;;;;;4990662;28;20547;-61
2023/10/09 03:56:13;;;;;;;2.20;2.10;;;22.60;47.90;;;;;;4997757;28;20540;-60
2023/10/09 03:58:42;;;;;;;2.53;2.33;;;22.60;47.90;;;;;;4987862;28;20500;-59
2023/10/09 04:01:24;;;;;;;2.23;2.13;;;22.60;47.90;;;;;;4990704;28;21577;-59
2023/10/09 04:03:55;;;;;;;2.20;2.10;;;22.60;47.90;;;;;;4996155;28;20540;-58
2023/10/09 04:06:28;;;;;;;2.50;2.40;;;22.70;48.00;;;;;;4986624;28;20592;-58
2023/10/09 04:08:54;;;;;;;2.87;2.67;;;22.60;47.90;;;;;;4994367;28;20469;-61
2023/10/09 04:11:23;;;;;;;2.57;2.23;;;22.70;48.10;;;;;;5011371;28;20460;-60
2023/10/09 04:13:53;;;;;;;2.67;2.47;;;22.60;47.90;;;;;;5010014;28;20611;-65
2023/10/09 04:16:33;;;;;;;2.63;2.50;;;22.60;47.90;;;;;;4994573;28;20529;-62
2023/10/09 04:19:10;;;;;;;2.57;2.47;;;22.70;48.00;;;;;;4992452;28;20469;-58
2023/10/09 04:21:37;;;;;;;2.67;2.47;;;22.70;48.00;;;;;;4993893;28;20468;-59
2023/10/09 04:26:44;;;;;;;2.07;1.97;;;22.70;47.90;;;;;;4996486;28;20469;-58
2023/10/09 04:29:37;;;;;;;2.50;2.40;;;22.70;47.80;;;;;;4996367;28;20472;-60
2023/10/09 04:32:07;;;;;;;2.70;2.50;;;22.70;47.80;;;;;;4990263;28;20469;-58
2023/10/09 04:34:37;;;;;;;2.50;2.30;;;22.70;47.80;;;;;;4989850;28;20466;-59
2023/10/09 04:39:36;;;;;;;2.40;2.30;;;22.70;47.80;;;;;;4989032;28;20489;-57
2023/10/09 04:42:36;;;;;;;2.87;2.67;;;22.70;47.80;;;;;;5001763;28;20465;-59
2023/10/09 04:47:37;;;;;;;1.90;1.80;;;22.70;47.80;;;;;;5005607;28;20571;-59
2023/10/09 04:57:44;;;;;;;2.27;2.10;;;22.70;47.80;;;;;;4987975;28;20794;-58
2023/10/09 05:02:57;;;;;;;2.40;2.20;;;22.80;47.90;;;;;;5006456;28;20473;-59
2023/10/09 05:06:20;;;;;;;2.37;2.17;;;22.70;47.80;;;;;;5007221;28;20512;-58
2023/10/09 05:08:21;;;;;;;2.67;2.53;;;22.70;47.80;;;;;;4999425;28;20454;-61
2023/10/09 05:16:18;;;;;;;2.33;2.17;;;22.70;47.80;;;;;;4993561;28;20461;-60
2023/10/09 05:18:45;;;;;;;2.20;2.00;;;22.70;47.80;;;;;;4987389;28;20596;-60
2023/10/09 05:23:48;;;;;;;3.40;3.20;;;22.70;47.80;;;;;;5008320;28;20499;-58
2023/10/09 05:26:37;;;;;;;2.50;2.40;;;22.70;47.80;;;;;;4992852;28;20449;-58
2023/10/09 05:29:19;;;;;;;2.60;2.40;;;22.70;47.80;;;;;;4991590;28;20512;-58
2023/10/09 05:32:03;;;;;;;2.60;2.50;;;22.70;47.80;;;;;;4996486;28;20484;-58
2023/10/09 05:37:17;;;;;;;3.37;3.17;;;22.70;47.80;;;;;;4993251;28;20956;-60
2023/10/09 05:39:58;;;;;;;2.20;2.10;;;22.70;47.80;;;;;;5003472;28;20527;-63
2023/10/09 05:42:28;;;;;;;2.57;2.37;;;22.70;47.80;;;;;;5013592;28;20475;-60
2023/10/09 05:47:54;;;;;;;3.20;2.70;;;22.70;47.80;;;;;;4958873;28;20490;-58
2023/10/09 06:06:02;;;;;;;2.53;2.23;;;22.70;47.70;;;;;;5003393;28;20448;-61
2023/10/09 06:11:39;;;;;;;2.77;2.57;;;22.70;47.80;;;;;;4989546;28;20582;-60
2023/10/09 06:19:43;;;;;;;3.00;2.80;;;22.70;47.80;;;;;;5008755;28;20445;-62
2023/10/09 06:24:41;;;;;;;3.30;3.10;;;22.70;47.80;;;;;;4995705;28;20813;-59
2023/10/09 06:32:23;;;;;;;3.23;3.03;;;22.70;47.80;;;;;;5000489;28;20477;-59
2023/10/09 06:34:56;;;;;;;2.90;2.70;;;22.70;47.80;;;;;;5002084;28;20468;-59
2023/10/09 06:45:09;;;;;;;5.43;2.47;;;22.70;47.80;;;;;;4990170;28;20809;-59
2023/10/09 06:53:19;;;;;;;2.90;2.77;;;22.70;47.80;;;;;;4991792;28;20461;-58
2023/10/09 06:55:48;;;;;;;2.73;2.53;;;22.70;47.80;;;;;;4987034;28;20457;-63
2023/10/09 06:58:22;;;;;;;2.73;2.60;;;22.70;47.80;;;;;;4994004;28;20228;-58
2023/10/09 07:00:54;;;;;;;2.67;2.47;;;22.70;47.80;;;;;;4990323;28;20458;-58
2023/10/09 07:03:29;;;;;;;2.60;2.50;;;22.70;47.80;;;;;;4991040;28;20983;-61
2023/10/09 07:06:09;;;;;;;3.00;2.80;;;22.70;47.80;;;;;;4987862;28;20476;-64
2023/10/09 07:08:44;;;;;;;2.47;2.27;;;22.70;47.80;;;;;;4993248;28;20460;-58
2023/10/09 07:11:45;;;;;;;3.10;2.90;;;22.70;47.80;;;;;;4991367;28;20567;-58
2023/10/09 07:17:00;;;;;;;3.07;2.87;;;22.70;47.80;;;;;;4990321;28;20541;-58
2023/10/09 07:24:56;;;;;;;2.33;2.23;;;22.70;47.80;;;;;;4989335;28;20461;-60
2023/10/09 07:38:14;;;;;;;2.50;2.40;;;22.70;47.80;;;;;;5002519;28;20459;-58
2023/10/09 07:40:56;;;;;;;2.50;2.30;;;22.70;47.80;;;;;;4991949;28;20461;-57
2023/10/09 07:43:28;;;;;;;2.77;2.63;;;22.70;47.80;;;;;;4991773;28;21106;-60
2023/10/09 07:48:38;;;;;;;3.37;3.17;;;22.70;47.80;;;;;;4996356;28;20453;-62
2023/10/09 07:51:05;;;;;;;2.80;2.60;;;22.80;47.90;;;;;;4995780;28;20469;-61
2023/10/09 07:53:43;;;;;;;2.30;2.20;;;22.70;47.80;;;;;;5005565;28;20462;-57
2023/10/09 07:56:08;;;;;;;2.53;2.43;;;22.70;47.80;;;;;;5006616;28;20435;-58
2023/10/09 07:58:46;;;;;;;3.13;2.87;;;22.70;47.80;;;;;;4996284;28;20468;-63
2023/10/09 08:01:15;;;;;;;2.90;2.70;;;22.70;47.80;;;;;;4995691;28;20226;-58
2023/10/09 08:03:46;;;;;;;2.70;2.50;;;22.70;47.80;;;;;;5000351;28;20519;-57
2023/10/09 08:17:20;;;;;;;2.60;2.40;;;22.70;47.80;;;;;;4994498;28;20468;-62
2023/10/09 08:19:54;;;;;;;2.63;2.43;;;22.70;47.80;;;;;;5013711;28;20463;-57
2023/10/09 08:24:57;;;;;;;3.17;2.97;;;22.70;47.80;;;;;;4997979;28;20532;-58
2023/10/09 08:30:28;;;;;;;2.63;2.43;;;22.70;47.80;;;;;;4991153;28;20460;-57
2023/10/09 08:33:00;;;;;;;2.60;2.50;;;22.70;47.80;;;;;;4998446;28;20488;-60
2023/10/09 08:35:47;;;;;;;2.93;2.73;;;22.70;47.90;;;;;;4991193;28;20484;-57
2023/10/09 08:38:14;;;;;;;2.93;2.73;;;22.70;47.80;;;;;;4995120;28;20454;-58
2023/10/09 08:40:43;;;;;;;3.07;2.87;;;22.70;47.80;;;;;;5008769;28;20504;-58
2023/10/09 08:43:21;;;;;;;2.80;2.60;;;22.70;47.80;;;;;;5003132;28;20459;-61
2023/10/09 08:45:53;;;;;;;4.03;2.87;;;22.70;47.80;;;;;;4991663;28;20452;-58
2023/10/09 08:48:21;;;;;;;3.20;2.90;;;22.70;47.80;;;;;;5008812;28;20491;-58
2023/10/09 08:50:53;;;;;;;2.87;2.63;;;22.70;47.80;;;;;;4996601;28;20964;-58
2023/10/09 08:53:20;;;;;;;2.93;2.73;;;22.70;47.80;;;;;;4994503;28;20544;-59
2023/10/09 08:55:46;;;;;;;2.60;2.40;;;22.70;47.80;;;;;;5009717;28;20615;-60
2023/10/09 09:01:00;;;;;;;2.97;2.77;;;22.70;47.90;;;;;;4994961;28;20255;-58
2023/10/09 09:03:36;;;;;;;2.73;2.53;;;22.70;48.00;;;;;;4995809;28;20472;-60
2023/10/09 09:06:02;;;;;;;3.17;2.97;;;22.70;48.00;;;;;;4995496;28;20468;-57
2023/10/09 09:08:32;;;;;;;2.47;2.37;;;22.70;47.90;;;;;;4997257;28;20458;-58
2023/10/09 09:11:11;;;;;;;2.60;2.40;;;22.70;47.90;;;;;;5001528;28;20231;-63
2023/10/09 09:13:37;;;;;;;3.00;2.10;;;22.70;47.80;;;;;;4991752;28;20481;-60
2023/10/09 09:16:03;;;;;;;2.60;2.40;;;22.70;47.90;;;;;;4991597;28;20472;-58
2023/10/09 09:18:36;;;;;;;2.70;2.50;;;22.70;48.00;;;;;;4992835;28;20469;-63
2023/10/09 09:21:21;;;;;;;2.50;2.40;;;22.70;47.80;;;;;;4995252;28;20227;-57
2023/10/09 09:24:00;;;;;;;4.63;2.50;;;22.70;47.90;;;;;;5007354;28;20464;-60
2023/10/09 09:26:37;;;;;;;2.37;2.27;;;22.70;47.90;;;;;;4993995;28;20496;-58
2023/10/09 09:29:06;;;;;;;2.37;2.27;;;22.70;47.90;;;;;;4995086;28;20454;-58
2023/10/09 09:31:38;;;;;;;2.37;2.27;;;22.70;47.90;;;;;;4995802;28;20472;-60
2023/10/09 09:34:12;;;;;;;2.90;2.80;;;22.70;47.90;;;;;;4988225;28;21049;-64
2023/10/09 09:36:53;;;;;;;2.53;2.33;;;22.70;48.00;;;;;;5009609;28;20455;-58
2023/10/09 09:39:26;;;;;;;2.50;2.30;;;22.70;47.90;;;;;;4992878;28;20545;-61
2023/10/09 09:41:54;;;;;;;2.40;2.30;;;22.70;48.00;;;;;;5012858;28;20476;-61
2023/10/09 09:44:25;;;;;;;2.77;2.57;;;22.70;47.90;;;;;;4999183;28;20829;-59
2023/10/09 09:46:53;;;;;;;2.40;2.30;;;22.70;47.90;;;;;;4990856;28;20459;-60
2023/10/09 09:49:21;;;;;;;2.83;2.63;;;22.70;48.00;;;;;;4995624;28;20468;-58
2023/10/09 09:51:47;;;;;;;2.90;2.70;;;22.70;48.00;;;;;;5010023;28;20481;-59
2023/10/09 09:54:17;;;;;;;2.63;2.53;;;22.70;48.00;;;;;;4996398;28;20504;-59
2023/10/09 09:56:51;;;;;;;2.30;2.20;;;22.70;47.90;;;;;;4990910;28;20452;-59
2023/10/09 09:59:27;;;;;;;2.57;2.37;;;22.70;47.90;;;;;;4996391;28;20898;-63
2023/10/09 10:01:57;;;;;;;2.63;2.50;;;22.70;47.90;;;;;;4995538;28;20955;-62
2023/10/09 10:04:28;;;;;;;3.07;2.27;;;22.70;48.00;;;;;;5011620;28;20532;-60
2023/10/09 10:06:57;;;;;;;2.40;2.30;;;22.70;48.00;;;;;;5003446;28;20516;-57
2023/10/09 10:09:39;;;;;;;2.43;2.30;;;22.70;48.00;;;;;;5002798;28;20465;-63
2023/10/09 10:12:09;;;;;;;2.47;2.30;;;22.70;47.90;;;;;;4990688;28;20583;-60
2023/10/09 10:15:37;;;;;;;3.00;2.80;;;22.70;47.90;;;;;;4993543;28;20476;-57
2023/10/09 10:17:59;;;;;;;2.67;2.47;;;22.70;48.00;;;;;;4984606;28;20471;-60
2023/10/09 10:20:25;;;;;;;3.50;3.20;;;22.70;48.00;;;;;;4992273;28;20445;-57
2023/10/09 10:23:17;;;;;;;2.80;2.60;;;22.70;48.00;;;;;;4993989;28;23232;-59
2023/10/09 10:25:48;;;;;;;2.33;2.20;;;22.70;48.00;;;;;;4990421;28;20449;-60
2023/10/09 10:31:07;;;;;;;2.40;2.30;;;22.70;48.00;;;;;;4989307;28;20492;-58
2023/10/09 10:33:53;;;;;;;2.50;2.40;;;22.70;48.00;;;;;;4988917;28;20567;-57
2023/10/09 10:36:22;;;;;;;3.00;2.70;;;22.70;48.10;;;;;;5003085;28;20454;-59
2023/10/09 10:39:04;;;;;;;2.50;2.30;;;22.70;48.10;;;;;;4994732;28;20465;-58
2023/10/09 10:41:35;;;;;;;2.70;2.50;;;22.70;48.00;;;;;;4990855;28;20482;-57
2023/10/09 10:46:51;;;;;;;2.37;2.27;;;22.70;48.00;;;;;;4998934;28;20463;-59
2023/10/09 10:49:36;;;;;;;2.67;2.47;;;22.80;48.10;;;;;;4998991;28;20499;-57
2023/10/09 10:52:15;;;;;;;2.10;2.00;;;22.70;48.80;;;;;;4993279;28;22436;-59
2023/10/09 10:57:28;;;;;;;2.20;2.10;;;22.70;48.00;;;;;;4997761;28;20514;-59
2023/10/09 11:00:12;;;;;;;2.70;2.50;;;22.80;48.10;;;;;;4990477;28;20242;-61
2023/10/09 11:02:40;;;;;;;2.93;2.73;;;22.70;48.00;;;;;;5000840;28;20465;-57
2023/10/09 11:05:25;;;;;;;2.20;2.10;;;22.70;48.00;;;;;;5003079;28;20831;-58
2023/10/09 11:07:57;;;;;;;2.40;2.30;;;22.70;48.00;;;;;;4987471;28;20468;-58
2023/10/09 11:10:31;;;;;;;3.17;2.87;;;22.80;48.10;;;;;;4990182;28;20819;-59
2023/10/09 11:15:44;;;;;;;2.27;2.17;;;22.80;48.10;;;;;;4986704;28;20460;-62
2023/10/09 11:18:20;;;;;;;3.20;2.90;;;22.80;48.10;;;;;;4990580;28;21055;-60
2023/10/09 11:23:36;;;;;;;3.40;3.20;;;22.80;48.10;;;;;;5001785;28;20460;-61
2023/10/09 11:32:09;;;;;;;2.83;2.60;;;22.80;48.00;;;;;;4991920;28;20542;-58
2023/10/09 11:34:36;;;;;;;2.20;2.10;;;22.80;48.10;;;;;;4988861;28;20466;-57
2023/10/09 11:37:02;;;;;;;2.30;2.20;;;22.70;48.00;;;;;;4996421;28;20465;-62
2023/10/09 11:39:32;;;;;;;2.77;2.57;;;22.80;48.10;;;;;;4991807;28;20859;-61
2023/10/09 11:42:05;;;;;;;2.70;2.57;;;22.80;48.10;;;;;;4996934;28;20505;-59
2023/10/09 11:44:44;;;;;;;2.60;2.50;;;22.80;48.10;;;;;;4990368;28;20461;-57
2023/10/09 11:50:02;;;;;;;2.90;2.70;;;22.80;48.10;;;;;;5000973;28;20540;-61
2023/10/09 11:52:35;;;;;;;2.90;2.70;;;22.80;48.10;;;;;;4995455;28;20481;-59
2023/10/09 11:55:02;;;;;;;2.43;2.33;;;22.80;48.10;;;;;;4987052;28;20465;-58
2023/10/09 11:57:30;;;;;;;2.50;2.30;;;22.80;48.10;;;;;;4992984;28;21022;-58
2023/10/09 11:59:58;;;;;;;2.70;2.50;;;22.80;48.10;;;;;;4996452;28;20930;-58
2023/10/09 12:02:23;;;;;;;2.70;2.50;;;22.80;48.10;;;;;;4993800;28;20634;-59
2023/10/09 12:04:49;;;;;;;2.70;2.60;;;22.80;48.00;;;;;;4987140;28;20989;-58
2023/10/09 12:07:15;;;;;;;3.20;3.00;;;22.80;48.00;;;;;;4984901;28;20223;-59
2023/10/09 12:09:41;;;;;;;2.93;2.73;;;22.80;48.00;;;;;;4981652;28;20230;-64
2023/10/09 12:12:11;;;;;;;2.57;2.37;;;22.80;48.00;;;;;;4987817;28;20687;-58
2023/10/09 12:14:39;;;;;;;2.80;2.60;;;22.80;48.10;;;;;;4993636;28;20216;-59
2023/10/09 12:17:05;;;;;;;3.13;2.93;;;22.80;48.10;;;;;;5003798;28;20480;-58
2023/10/09 12:19:35;;;;;;;2.47;2.37;;;22.80;48.10;;;;;;4995265;28;20488;-55
2023/10/09 12:22:03;;;;;;;2.67;2.47;;;22.80;48.10;;;;;;4997762;28;20465;-58
2023/10/09 12:24:30;;;;;;;3.00;2.80;;;22.80;48.00;;;;;;4991287;28;20470;-56
2023/10/09 12:26:56;;;;;;;2.47;2.27;;;22.80;48.00;;;;;;4983812;28;20473;-58
2023/10/09 12:29:22;;;;;;;2.50;2.30;;;22.80;48.00;;;;;;4983691;28;20552;-57
2023/10/09 12:31:47;;;;;;;2.80;2.60;;;22.80;48.00;;;;;;5000904;28;20690;-61
2023/10/09 12:34:16;;;;;;;2.60;2.33;;;22.80;48.00;;;;;;4994616;28;20226;-57
2023/10/09 12:36:45;;;;;;;2.90;2.70;;;22.80;48.00;;;;;;5010229;28;20316;-59
2023/10/09 12:39:18;;;;;;;2.80;2.60;;;22.80;48.00;;;;;;5005865;28;20452;-59
2023/10/09 12:41:44;;;;;;;2.60;2.40;;;22.80;48.00;;;;;;5007806;28;20487;-60
2023/10/09 12:44:18;;;;;;;2.40;2.30;;;22.80;48.10;;;;;;4991569;28;20532;-59
2023/10/09 12:46:53;;;;;;;2.43;2.33;;;22.80;48.10;;;;;;4991897;28;20460;-59
2023/10/09 12:49:26;;;;;;;2.57;2.47;;;22.80;48.00;;;;;;4994941;28;20483;-59
2023/10/09 12:51:56;;;;;;;2.80;2.60;;;22.80;48.10;;;;;;4999697;28;20491;-59
2023/10/09 12:54:26;;;;;;;1.90;1.80;;;22.80;48.00;;;;;;4993762;28;20456;-59
2023/10/09 12:56:52;;;;;;;3.00;2.80;;;22.80;48.10;;;;;;4989593;28;20809;-59
2023/10/09 12:59:19;;;;;;;2.47;2.37;;;22.80;48.00;;;;;;5000217;28;20456;-56
2023/10/09 13:01:49;;;;;;;2.90;2.73;;;22.80;48.10;;;;;;5013453;28;20471;-60
2023/10/09 13:04:15;;;;;;;2.70;2.50;;;22.80;48.10;;;;;;4998376;28;20456;-57
2023/10/09 13:06:45;;;;;;;2.13;2.03;;;22.80;48.10;;;;;;4994749;28;20453;-60
2023/10/09 13:09:15;;;;;;;3.20;3.10;;;22.80;48.00;;;;;;4992541;28;20534;-59
2023/10/09 13:11:42;;;;;;;2.30;2.20;;;22.80;48.10;;;;;;5000572;28;20454;-62
2023/10/09 13:14:17;;;;;;;2.20;2.10;;;22.80;48.10;;;;;;4992014;28;21064;-57
2023/10/09 13:16:43;;;;;;;3.03;2.87;;;22.80;48.10;;;;;;4991244;28;20461;-62
2023/10/09 13:19:12;;;;;;;2.50;2.40;;;22.80;48.10;;;;;;5008807;28;20513;-58
2023/10/09 13:21:42;;;;;;;2.43;2.33;;;22.80;48.20;;;;;;4990818;28;20477;-62
2023/10/09 13:24:15;;;;;;;2.50;2.30;;;22.80;48.10;;;;;;4997499;28;21005;-59
2023/10/09 13:26:46;;;;;;;2.30;2.20;;;22.80;48.10;;;;;;4994998;28;20453;-59
2023/10/09 13:29:12;;;;;;;2.60;2.40;;;22.80;48.10;;;;;;4992074;28;20466;-57
2023/10/09 13:31:46;;;;;;;2.43;2.33;;;22.80;48.10;;;;;;4991185;28;20581;-59
2023/10/09 13:34:14;;;;;;;3.20;3.00;;;22.80;48.10;;;;;;4991582;28;20453;-64
2023/10/09 13:36:45;;;;;;;2.60;2.50;;;22.80;48.10;;;;;;4991423;28;21853;-59
2023/10/09 13:39:24;;;;;;;2.40;2.30;;;22.80;48.10;;;;;;5014469;28;20439;-57
2023/10/09 13:41:57;;;;;;;2.80;2.60;;;22.80;48.10;;;;;;4994659;28;20476;-59
2023/10/09 13:44:27;;;;;;;2.40;2.30;;;22.80;48.20;;;;;;4992310;28;20476;-57
2023/10/09 13:46:58;;;;;;;2.87;2.67;;;22.80;48.20;;;;;;4987926;28;20561;-57
2023/10/09 13:49:29;;;;;;;2.50;2.30;;;22.80;48.20;;;;;;5001442;28;20596;-62
2023/10/09 13:51:56;;;;;;;2.77;2.57;;;22.80;48.20;;;;;;4992056;28;20473;-57
2023/10/09 13:54:28;;;;;;;2.80;2.60;;;22.80;48.20;;;;;;4997273;28;20457;-61
2023/10/09 13:56:55;;;;;;;2.30;2.20;;;22.80;48.30;;;;;;4988425;28;21372;-62
2023/10/09 13:59:23;;;;;;;2.63;2.43;;;22.80;48.20;;;;;;5003232;28;20498;-61
2023/10/09 14:01:49;;;;;;;2.50;2.40;;;22.80;48.20;;;;;;4990871;28;20473;-57
2023/10/09 14:04:18;;;;;;;2.80;2.60;;;22.80;48.20;;;;;;4991848;28;20461;-63
2023/10/09 14:06:44;;;;;;;2.37;2.27;;;22.80;48.20;;;;;;4988383;28;20461;-59
2023/10/09 14:09:11;;;;;;;2.40;2.30;;;22.80;48.20;;;;;;4989090;28;20440;-57
2023/10/09 14:11:44;;;;;;;2.70;2.50;;;22.80;48.20;;;;;;5003112;28;20471;-59
2023/10/09 14:14:09;;;;;;;2.47;2.37;;;22.80;48.20;;;;;;4999881;28;20458;-57
2023/10/09 14:16:42;;;;;;;2.70;2.33;;;22.80;48.20;;;;;;4989117;28;20478;-56
2023/10/09 14:19:12;;;;;;;2.23;2.13;;;22.80;48.30;;;;;;4988868;28;20227;-60
2023/10/09 14:21:40;;;;;;;3.27;3.07;;;22.80;48.20;;;;;;4989876;28;20469;-56
2023/10/09 14:24:15;;;;;;;2.60;2.50;;;22.80;48.20;;;;;;4993112;28;20462;-56
2023/10/09 14:26:41;;;;;;;4.00;2.53;;;22.80;48.20;;;;;;4991333;28;20471;-56
2023/10/09 14:29:07;;;;;;;2.80;2.60;;;22.80;48.30;;;;;;4986885;28;20476;-57
2023/10/09 14:31:38;;;;;;;2.77;2.57;;;22.80;48.20;;;;;;4989002;28;20465;-61
2023/10/09 14:34:05;;;;;;;2.90;2.70;;;22.80;48.20;;;;;;4994146;28;20227;-57
2023/10/09 14:36:33;;;;;;;2.37;2.27;;;22.80;48.20;;;;;;5004406;28;20486;-58
2023/10/09 14:39:04;;;;;;;2.30;2.20;;;22.80;48.20;;;;;;5010598;28;20480;-57
2023/10/09 14:41:32;;;;;;;3.40;2.73;;;22.80;48.30;;;;;;5009447;28;20570;-60
2023/10/09 14:43:58;;;;;;;3.27;2.83;;;22.80;48.30;;;;;;5003904;28;20994;-60
2023/10/09 14:46:28;;;;;;;3.60;3.40;;;22.80;48.30;;;;;;4987477;28;20462;-58
2023/10/09 14:48:54;;;;;;;2.83;2.63;;;22.80;48.30;;;;;;4986084;28;21121;-60
2023/10/09 14:51:26;;;;;;;2.80;2.60;;;22.80;48.30;;;;;;5001291;28;20468;-62
2023/10/09 14:53:57;;;;;;;2.73;2.60;;;22.80;48.30;;;;;;5001145;28;20255;-57
2023/10/09 14:56:28;;;;;;;2.77;2.50;;;22.80;48.20;;;;;;4989177;28;20512;-59
2023/10/09 14:59:00;;;;;;;3.27;2.97;;;22.80;48.30;;;;;;4989145;28;20476;-61
2023/10/09 15:01:31;;;;;;;2.50;2.40;;;22.80;48.30;;;;;;4987774;28;20469;-58
2023/10/09 15:03:57;;;;;;;2.67;2.50;;;22.80;48.20;;;;;;5007167;28;20511;-57
2023/10/09 15:06:24;;;;;;;2.83;2.70;;;22.80;48.30;;;;;;4999301;28;20907;-57
2023/10/09 15:08:50;;;;;;;2.60;2.40;;;22.80;48.30;;;;;;5000636;28;20856;-57
2023/10/09 15:11:15;;;;;;;2.60;2.40;;;22.80;48.30;;;;;;5005989;28;20471;-57
2023/10/09 15:13:41;;;;;;;2.90;2.70;;;22.80;48.20;;;;;;4991750;28;20228;-62
2023/10/09 15:16:06;;;;;;;2.63;2.53;;;22.80;48.30;;;;;;4986856;28;20310;-56
2023/10/09 15:18:33;;;;;;;2.60;2.40;;;22.80;48.20;;;;;;4984736;28;20227;-59
2023/10/09 15:20:59;;;;;;;2.77;2.57;;;22.80;48.20;;;;;;4986760;28;20950;-63
2023/10/09 15:23:26;;;;;;;3.00;2.77;;;22.80;48.30;;;;;;4988952;28;20550;-57
2023/10/09 15:25:52;;;;;;;3.00;2.80;;;22.80;48.30;;;;;;4987685;28;20496;-59
2023/10/09 15:28:22;;;;;;;2.47;2.37;;;22.80;48.30;;;;;;4988556;28;20810;-57
2023/10/09 15:30:49;;;;;;;2.73;2.53;;;22.80;48.20;;;;;;4986488;28;20231;-63
2023/10/09 15:33:16;;;;;;;2.97;2.77;;;22.80;48.30;;;;;;4993610;28;20527;-57
2023/10/09 15:35:46;;;;;;;2.60;2.40;;;22.80;48.30;;;;;;4990311;28;20458;-63
2023/10/09 15:38:13;;;;;;;2.83;2.63;;;22.80;48.30;;;;;;4990170;28;20964;-58